createdAt,value
2022-12-01T00:02:06.161Z,30.25
2022-12-01T00:04:32.638Z,28.70
2022-12-01T00:06:59.070Z,30.55
2022-12-01T00:09:44.196Z,28.15
2022-12-01T00:12:10.566Z,29.25
2022-12-01T00:14:36.979Z,29.58
2022-12-01T00:17:04.923Z,29.30
2022-12-01T00:19:31.429Z,28.98
2022-12-01T00:21:57.845Z,30.48
2022-12-01T00:24:25.247Z,27.92
2022-12-01T00:26:51.698Z,27.10
2022-12-01T00:29:18.039Z,28.92
2022-12-01T00:31:44.440Z,27.67
2022-12-01T00:34:22.663Z,26.35
2022-12-01T00:39:15.414Z,26.33
2022-12-01T00:41:41.880Z,27.05
2022-12-01T00:44:08.352Z,26.83
2022-12-01T00:46:34.782Z,26.13
2022-12-01T00:49:01.144Z,25.15
2022-12-01T00:51:27.580Z,26.75
2022-12-01T00:53:53.904Z,26.80
2022-12-01T00:56:21.057Z,26.48
2022-12-01T00:58:47.449Z,27.98
2022-12-01T01:01:13.932Z,26.75
2022-12-01T01:03:40.409Z,29.17
2022-12-01T01:06:10.553Z,27.10
2022-12-01T01:08:37.482Z,27.23
2022-12-01T01:11:05.142Z,27.85
2022-12-01T01:13:32.425Z,24.73
2022-12-01T01:15:59.831Z,29.17
2022-12-01T01:18:26.305Z,30.08
2022-12-01T01:21:00.705Z,27.33
2022-12-01T01:23:27.148Z,28.67
2022-12-01T01:25:53.584Z,28.27
2022-12-01T01:28:20.077Z,26.20
2022-12-01T01:30:46.889Z,27.63
2022-12-01T01:33:13.270Z,27.83
2022-12-01T01:35:39.624Z,28.42
2022-12-01T01:38:06.113Z,28.98
2022-12-01T01:40:32.534Z,30.52
2022-12-01T01:42:58.922Z,28.73
2022-12-01T01:45:29.489Z,29.38
2022-12-01T01:47:59.368Z,28.27
2022-12-01T01:50:28.289Z,29.33
2022-12-01T01:53:02.761Z,30.90
2022-12-01T01:55:31.751Z,29.77
2022-12-01T01:57:58.389Z,29.77
2022-12-01T02:00:24.953Z,28.23
2022-12-01T02:02:53.197Z,28.77
2022-12-01T02:05:23.886Z,29.35
2022-12-01T02:07:51.980Z,28.13
2022-12-01T02:10:22.571Z,27.75
2022-12-01T02:13:10.469Z,25.63
2022-12-01T02:15:52.009Z,24.83
2022-12-01T02:18:31.935Z,25.98
2022-12-01T02:21:22.159Z,27.10
2022-12-01T02:24:10.063Z,25.08
2022-12-01T02:26:46.720Z,24.93
2022-12-01T02:30:01.694Z,24.10
2022-12-01T02:32:35.580Z,23.95
2022-12-01T02:35:20.099Z,24.08
2022-12-01T02:38:03.413Z,25.58
2022-12-01T02:41:02.156Z,25.17
2022-12-01T02:43:46.202Z,24.75
2022-12-01T02:46:18.515Z,24.45
2022-12-01T02:48:49.313Z,26.17
2022-12-01T02:51:30.190Z,24.67
2022-12-01T02:53:59.235Z,25.58
2022-12-01T02:56:25.724Z,25.50
2022-12-01T02:58:52.144Z,26.17
2022-12-01T03:01:21.728Z,27.05
2022-12-01T03:04:12.863Z,27.50
2022-12-01T03:06:57.698Z,27.73
2022-12-01T03:09:27.431Z,26.67
2022-12-01T03:12:07.327Z,26.90
2022-12-01T03:15:04.148Z,27.17
2022-12-01T03:17:38.259Z,28.35
2022-12-01T03:20:19.448Z,27.77
2022-12-01T03:22:55.246Z,28.48
2022-12-01T03:25:24.897Z,27.55
2022-12-01T03:28:20.323Z,27.52
2022-12-01T03:30:46.253Z,27.77
2022-12-01T03:33:20.998Z,28.35
2022-12-01T03:36:02.540Z,27.23
2022-12-01T03:38:30.333Z,24.95
2022-12-01T03:41:05.452Z,27.08
2022-12-01T03:43:36.666Z,25.88
2022-12-01T03:46:06.512Z,25.20
2022-12-01T03:48:33.696Z,27.30
2022-12-01T03:51:11.576Z,27.83
2022-12-01T03:54:01.012Z,27.70
2022-12-01T03:56:35.533Z,29.08
2022-12-01T03:59:04.980Z,28.92
2022-12-01T04:01:33.499Z,28.20
2022-12-01T04:04:12.105Z,29.17
2022-12-01T04:06:42.281Z,28.80
2022-12-01T04:09:08.686Z,30.08
2022-12-01T04:11:53.926Z,27.63
2022-12-01T04:14:20.394Z,30.30
2022-12-01T04:16:46.923Z,28.95
2022-12-01T04:19:13.435Z,28.48
2022-12-01T04:21:39.871Z,29.33
2022-12-01T04:24:06.620Z,28.83
2022-12-01T04:26:36.193Z,29.05
2022-12-01T04:29:05.577Z,28.20
2022-12-01T04:31:31.975Z,29.55
2022-12-01T04:33:59.314Z,27.38
2022-12-01T04:36:26.499Z,26.45
2022-12-01T04:38:53.047Z,26.65
2022-12-01T04:41:19.636Z,27.67
2022-12-01T04:43:46.308Z,27.97
2022-12-01T04:46:15.082Z,25.80
2022-12-01T04:48:41.585Z,28.23
2022-12-01T04:51:09.010Z,25.90
2022-12-01T04:53:36.233Z,29.38
2022-12-01T04:56:03.407Z,25.50
2022-12-01T04:58:31.422Z,26.30
2022-12-01T05:01:05.887Z,26.88
2022-12-01T05:03:35.579Z,25.23
2022-12-01T05:06:04.564Z,27.80
2022-12-01T05:08:31.143Z,26.67
2022-12-01T05:10:57.929Z,27.35
2022-12-01T05:13:24.506Z,25.95
2022-12-01T05:15:51.022Z,27.88
2022-12-01T05:18:17.544Z,28.13
2022-12-01T05:20:59.179Z,27.05
2022-12-01T05:23:27.633Z,28.10
2022-12-01T05:25:54.696Z,24.95
2022-12-01T05:28:22.251Z,26.00
2022-12-01T05:33:15.647Z,26.95
2022-12-01T05:35:42.137Z,24.95
2022-12-01T05:38:08.718Z,27.40
2022-12-01T05:40:35.979Z,26.55
2022-12-01T05:43:02.562Z,28.48
2022-12-01T05:45:29.079Z,26.33
2022-12-01T05:47:57.018Z,28.30
2022-12-01T05:50:24.932Z,27.80
2022-12-01T05:52:51.626Z,29.35
2022-12-01T05:55:18.196Z,27.15
2022-12-01T05:57:45.232Z,29.02
2022-12-01T06:00:13.177Z,28.83
2022-12-01T06:02:40.992Z,28.20
2022-12-01T06:05:08.323Z,27.15
2022-12-01T06:07:35.745Z,28.10
2022-12-01T06:10:02.872Z,28.02
2022-12-01T06:12:29.257Z,28.73
2022-12-01T06:14:55.733Z,28.00
2022-12-01T06:17:22.145Z,29.05
2022-12-01T06:19:48.784Z,27.35
2022-12-01T06:22:15.497Z,28.50
2022-12-01T06:24:41.937Z,29.60
2022-12-01T06:27:08.302Z,28.38
2022-12-01T06:29:39.035Z,30.92
2022-12-01T06:32:08.313Z,27.15
2022-12-01T06:34:34.696Z,30.30
2022-12-01T06:37:01.100Z,28.60
2022-12-01T06:39:27.567Z,30.13
2022-12-01T06:41:53.998Z,30.50
2022-12-01T06:44:20.378Z,29.95
2022-12-01T06:46:46.816Z,29.67
2022-12-01T06:49:13.412Z,29.10
2022-12-01T06:51:40.320Z,31.03
2022-12-01T06:54:06.748Z,29.67
2022-12-01T06:56:33.150Z,28.75
2022-12-01T06:58:59.904Z,29.80
2022-12-01T07:01:27.028Z,28.27
2022-12-01T07:03:53.514Z,28.17
2022-12-01T07:06:19.911Z,30.65
2022-12-01T07:08:46.569Z,28.77
2022-12-01T07:11:14.620Z,30.77
2022-12-01T07:13:42.661Z,32.13
2022-12-01T07:16:09.719Z,28.65
2022-12-01T07:18:38.541Z,28.10
2022-12-01T07:21:07.920Z,28.55
2022-12-01T07:23:35.082Z,30.52
2022-12-01T07:26:16.209Z,30.77
2022-12-01T07:28:43.742Z,29.85
2022-12-01T07:33:45.109Z,28.85
2022-12-01T07:36:12.793Z,30.53
2022-12-01T07:38:39.253Z,30.70
2022-12-01T07:41:17.084Z,30.25
2022-12-01T07:43:43.524Z,28.80
2022-12-01T07:46:18.775Z,30.60
2022-12-01T07:48:47.335Z,28.92
2022-12-01T07:51:18.574Z,31.30
2022-12-01T07:53:46.584Z,29.60
2022-12-01T07:56:13.511Z,27.90
2022-12-01T07:58:40.007Z,27.77
2022-12-01T08:01:11.898Z,27.95
2022-12-01T08:03:39.377Z,28.50
2022-12-01T08:06:06.990Z,28.92
2022-12-01T08:11:03.493Z,29.20
2022-12-01T08:13:30.547Z,29.33
2022-12-01T08:15:57.237Z,28.02
2022-12-01T08:18:24.064Z,28.40
2022-12-01T08:20:51.466Z,29.23
2022-12-01T08:23:17.917Z,27.50
2022-12-01T08:25:44.359Z,29.88
2022-12-01T08:28:10.767Z,28.75
2022-12-01T08:30:37.188Z,27.50
2022-12-01T08:33:03.746Z,25.55
2022-12-01T08:35:30.146Z,28.67
2022-12-01T08:37:56.468Z,26.65
2022-12-01T08:40:22.974Z,28.42
2022-12-01T08:42:52.586Z,27.55
2022-12-01T08:45:19.461Z,27.15
2022-12-01T08:47:46.147Z,28.67
2022-12-01T08:50:12.668Z,28.83
2022-12-01T08:52:41.151Z,32.70
2022-12-01T08:55:08.360Z,32.05
2022-12-01T08:57:34.768Z,30.63
2022-12-01T09:00:01.120Z,30.70
2022-12-01T09:02:27.753Z,28.85
2022-12-01T09:04:54.275Z,31.30
2022-12-01T09:07:26.069Z,27.27
2022-12-01T09:09:53.201Z,27.98
2022-12-01T09:12:19.608Z,28.70
2022-12-01T09:14:48.342Z,30.75
2022-12-01T09:17:16.518Z,30.42
2022-12-01T09:19:44.433Z,29.02
2022-12-01T09:22:11.767Z,29.15
2022-12-01T09:24:38.351Z,30.55
2022-12-01T09:27:05.031Z,28.33
2022-12-01T09:29:32.357Z,27.47
2022-12-01T09:32:00.403Z,28.13
2022-12-01T09:34:27.838Z,27.65
2022-12-01T09:36:58.514Z,28.33
2022-12-01T09:39:25.690Z,30.85
2022-12-01T09:42:07.610Z,30.77
2022-12-01T09:44:54.784Z,28.00
2022-12-01T09:47:28.897Z,26.75
2022-12-01T09:50:07.009Z,27.17
2022-12-01T09:52:59.603Z,26.95
2022-12-01T09:55:28.648Z,27.10
2022-12-01T09:57:58.336Z,27.48
2022-12-01T10:00:28.854Z,25.80
2022-12-01T10:03:10.375Z,27.10
2022-12-01T10:06:10.226Z,25.45
2022-12-01T10:08:36.518Z,26.90
2022-12-01T10:11:13.174Z,28.40
2022-12-01T10:13:39.620Z,29.02
2022-12-01T10:16:11.566Z,25.55
2022-12-01T10:19:07.144Z,23.85
2022-12-01T10:21:51.697Z,25.23
2022-12-01T10:24:47.492Z,25.65
2022-12-01T10:27:26.008Z,27.50
2022-12-01T10:30:06.979Z,25.27
2022-12-01T10:32:48.564Z,24.85
2022-12-01T10:35:17.513Z,26.33
2022-12-01T10:37:45.795Z,24.73
2022-12-01T10:40:14.384Z,26.75
2022-12-01T10:42:46.822Z,24.42
2022-12-01T10:45:24.076Z,25.70
2022-12-01T10:48:15.058Z,25.47
2022-12-01T10:50:43.556Z,23.35
2022-12-01T10:53:31.153Z,26.42
2022-12-01T10:56:14.051Z,25.45
2022-12-01T10:58:56.946Z,25.35
2022-12-01T11:01:26.872Z,26.40
2022-12-01T11:04:33.272Z,25.60
2022-12-01T11:07:00.839Z,25.02
2022-12-01T11:12:01.032Z,24.73
2022-12-01T11:14:36.951Z,27.30
2022-12-01T11:17:16.414Z,26.25
2022-12-01T11:19:42.950Z,27.52
2022-12-01T11:22:33.039Z,26.37
2022-12-01T11:25:18.379Z,26.48
2022-12-01T11:27:57.494Z,27.80
2022-12-01T11:30:29.355Z,26.65
2022-12-01T11:32:59.388Z,25.95
2022-12-01T11:35:31.961Z,27.20
2022-12-01T11:40:51.294Z,28.52
2022-12-01T11:43:31.900Z,27.02
2022-12-01T11:46:02.606Z,26.80
2022-12-01T11:48:31.131Z,27.20
2022-12-01T11:51:17.776Z,26.55
2022-12-01T11:53:44.776Z,27.30
2022-12-01T11:56:28.595Z,27.42
2022-12-01T11:59:01.183Z,26.85
2022-12-01T12:01:49.113Z,25.92
2022-12-01T12:04:27.586Z,25.97
2022-12-01T12:07:31.164Z,27.45
2022-12-01T12:10:19.663Z,28.73
2022-12-01T12:13:06.109Z,26.60
2022-12-01T12:16:07.263Z,27.60
2022-12-01T12:19:07.166Z,26.02
2022-12-01T12:21:47.973Z,26.73
2022-12-01T12:24:33.042Z,27.65
2022-12-01T12:27:15.732Z,26.35
2022-12-01T12:30:06.068Z,27.48
2022-12-01T12:33:08.459Z,27.73
2022-12-01T12:36:05.556Z,30.45
2022-12-01T12:38:52.607Z,28.88
2022-12-01T12:41:51.095Z,29.80
2022-12-01T12:44:54.401Z,29.80
2022-12-01T12:47:45.674Z,27.67
2022-12-01T12:50:24.304Z,26.88
2022-12-01T12:52:58.068Z,26.73
2022-12-01T12:55:37.400Z,27.70
2022-12-01T12:58:22.448Z,27.15
2022-12-01T13:00:59.616Z,26.20
2022-12-01T13:03:44.536Z,29.02
2022-12-01T13:06:27.926Z,30.67
2022-12-01T13:09:11.501Z,28.88
2022-12-01T13:12:01.549Z,27.23
2022-12-01T13:14:46.339Z,25.50
2022-12-01T13:17:34.709Z,24.75
2022-12-01T13:20:01.064Z,23.83
2022-12-01T13:22:34.076Z,20.02
2022-12-01T13:25:01.151Z,22.02
2022-12-01T13:27:33.068Z,21.52
2022-12-01T13:30:00.500Z,20.67
2022-12-01T13:35:01.351Z,19.35
2022-12-01T13:37:30.945Z,20.23
2022-12-01T13:40:20.212Z,20.30
2022-12-01T13:43:10.260Z,20.20
2022-12-01T13:45:39.900Z,20.65
2022-12-01T13:48:25.067Z,20.02
2022-12-01T13:50:57.603Z,20.33
2022-12-01T13:53:30.110Z,20.55
2022-12-01T13:56:00.042Z,20.48
2022-12-01T13:58:44.064Z,20.70
2022-12-01T14:01:20.004Z,18.60
2022-12-01T14:04:02.408Z,18.38
2022-12-01T14:06:50.175Z,17.83
2022-12-01T14:09:21.219Z,17.77
2022-12-01T14:12:17.833Z,18.02
2022-12-01T14:14:57.011Z,18.33
2022-12-01T14:17:44.943Z,18.98
2022-12-01T14:20:14.621Z,19.73
2022-12-01T14:22:44.579Z,18.95
2022-12-01T14:25:20.270Z,19.55
2022-12-01T14:27:50.195Z,19.10
2022-12-01T14:30:47.650Z,18.85
2022-12-01T14:33:38.913Z,18.83
2022-12-01T14:36:24.037Z,17.38
2022-12-01T14:39:22.559Z,18.17
2022-12-01T14:41:53.394Z,19.40
2022-12-01T14:44:35.253Z,19.20
2022-12-01T14:47:10.806Z,17.42
2022-12-01T14:49:49.323Z,18.25
2022-12-01T14:52:33.469Z,19.85
2022-12-01T14:55:03.846Z,18.95
2022-12-01T14:57:48.687Z,19.20
2022-12-01T15:00:20.829Z,19.55
2022-12-01T15:03:03.005Z,20.10
2022-12-01T15:05:31.851Z,20.52
2022-12-01T15:08:25.601Z,20.67
2022-12-01T15:10:53.957Z,21.77
2022-12-01T15:13:24.179Z,21.75
2022-12-01T15:16:05.654Z,19.50
2022-12-01T15:18:36.960Z,21.73
2022-12-01T15:21:28.198Z,19.27
2022-12-01T15:24:17.585Z,19.23
2022-12-01T15:26:49.806Z,20.27
2022-12-01T15:29:24.842Z,21.95
2022-12-01T15:31:53.940Z,21.25
2022-12-01T15:34:25.112Z,21.00
2022-12-01T15:36:52.682Z,22.30
2022-12-01T15:41:53.627Z,20.38
2022-12-01T15:44:40.488Z,23.02
2022-12-01T15:47:33.444Z,22.33
2022-12-01T15:49:59.943Z,25.80
2022-12-01T15:52:26.427Z,23.90
2022-12-01T15:54:53.050Z,26.77
2022-12-01T15:57:21.550Z,26.60
2022-12-01T15:59:54.061Z,24.88
2022-12-01T16:02:20.479Z,26.38
2022-12-01T16:04:48.817Z,24.83
2022-12-01T16:07:15.598Z,26.50
2022-12-01T16:09:59.615Z,28.52
2022-12-01T16:12:32.856Z,27.85
2022-12-01T16:15:06.795Z,29.15
2022-12-01T16:17:48.257Z,27.00
2022-12-01T16:20:21.802Z,26.73
2022-12-01T16:22:52.410Z,29.38
2022-12-01T16:25:27.697Z,27.05
2022-12-01T16:27:55.883Z,26.80
2022-12-01T16:30:25.700Z,27.42
2022-12-01T16:33:01.689Z,29.77
2022-12-01T16:35:31.364Z,26.75
2022-12-01T16:37:58.600Z,28.60
2022-12-01T16:40:25.828Z,29.70
2022-12-01T16:42:52.305Z,35.88
2022-12-01T16:45:19.456Z,31.58
2022-12-01T16:47:47.868Z,31.58
2022-12-01T16:50:16.230Z,29.70
2022-12-01T16:52:44.573Z,35.45
2022-12-01T16:55:35.010Z,35.05
2022-12-01T16:58:01.412Z,33.70
2022-12-01T17:00:29.305Z,32.45
2022-12-01T17:02:55.937Z,31.95
2022-12-01T17:05:22.445Z,32.87
2022-12-01T17:07:48.988Z,56.63
2022-12-01T17:10:16.231Z,39.03
2022-12-01T17:12:42.662Z,44.80
2022-12-01T17:15:10.266Z,34.03
2022-12-01T17:20:05.105Z,33.78
2022-12-01T17:22:31.562Z,37.72
2022-12-01T17:24:59.328Z,33.95
2022-12-01T17:27:27.659Z,33.33
2022-12-01T17:29:54.761Z,33.78
2022-12-01T17:32:21.185Z,34.15
2022-12-01T17:34:47.792Z,34.90
2022-12-01T17:37:20.470Z,33.92
2022-12-01T17:39:47.583Z,36.33
2022-12-01T17:42:13.973Z,33.78
2022-12-01T17:44:40.455Z,33.72
2022-12-01T17:47:06.843Z,35.58
2022-12-01T17:49:35.699Z,35.65
2022-12-01T17:52:03.094Z,35.78
2022-12-01T17:54:29.531Z,36.97
2022-12-01T17:56:55.956Z,36.42
2022-12-01T17:59:22.343Z,35.47
2022-12-01T18:01:48.900Z,33.92
2022-12-01T18:04:15.353Z,37.95
2022-12-01T18:06:41.917Z,34.33
2022-12-01T18:09:08.302Z,37.08
2022-12-01T18:11:34.870Z,34.92
2022-12-01T18:14:01.464Z,35.13
2022-12-01T18:16:30.893Z,34.55
2022-12-01T18:18:58.874Z,35.15
2022-12-01T18:21:26.080Z,33.72
2022-12-01T18:23:58.277Z,34.50
2022-12-01T18:26:26.235Z,33.97
2022-12-01T18:28:57.261Z,32.03
2022-12-01T18:31:24.731Z,33.40
2022-12-01T18:36:23.523Z,33.38
2022-12-01T18:38:51.660Z,32.28
2022-12-01T18:41:18.563Z,33.55
2022-12-01T18:43:45.745Z,34.08
2022-12-01T18:46:14.241Z,33.80
2022-12-01T18:48:49.338Z,34.53
2022-12-01T18:51:16.234Z,33.97
2022-12-01T18:53:42.572Z,34.90
2022-12-01T18:56:11.691Z,33.03
2022-12-01T18:58:39.374Z,34.80
2022-12-01T19:01:19.239Z,32.38
2022-12-01T19:03:45.627Z,33.58
2022-12-01T19:06:13.106Z,35.38
2022-12-01T19:08:40.629Z,33.55
2022-12-01T19:11:08.129Z,32.78
2022-12-01T19:13:34.843Z,35.90
2022-12-01T19:16:09.500Z,35.50
2022-12-01T19:18:37.163Z,34.90
2022-12-01T19:23:31.373Z,33.13
2022-12-01T19:25:58.044Z,33.92
2022-12-01T19:28:24.706Z,34.30
2022-12-01T19:30:51.318Z,32.50
2022-12-01T19:33:17.696Z,34.63
2022-12-01T19:35:44.107Z,34.92
2022-12-01T19:38:10.472Z,33.67
2022-12-01T19:40:38.533Z,36.05
2022-12-01T19:43:05.888Z,36.30
2022-12-01T19:45:33.349Z,33.28
2022-12-01T19:47:59.860Z,37.63
2022-12-01T19:50:26.288Z,36.88
2022-12-01T19:52:52.756Z,42.35
2022-12-01T19:55:19.312Z,36.97
2022-12-01T19:57:50.817Z,42.83
2022-12-01T20:00:18.828Z,39.85
2022-12-01T20:02:45.299Z,40.85
2022-12-01T20:05:11.777Z,39.60
2022-12-01T20:07:38.235Z,41.33
2022-12-01T20:10:05.518Z,39.42
2022-12-01T20:12:32.002Z,42.20
2022-12-01T20:14:58.440Z,41.30
2022-12-01T20:17:24.883Z,40.65
2022-12-01T20:19:51.449Z,38.28
2022-12-01T20:22:17.931Z,37.20
2022-12-01T20:24:45.622Z,36.13
2022-12-01T20:27:12.067Z,34.78
2022-12-01T20:29:38.590Z,34.78
2022-12-01T20:32:05.167Z,36.38
2022-12-01T20:34:34.449Z,34.40
2022-12-01T20:37:02.155Z,34.63
2022-12-01T20:39:31.404Z,34.22
2022-12-01T20:41:57.804Z,33.72
2022-12-01T20:44:24.232Z,34.13
2022-12-01T20:46:50.644Z,33.72
2022-12-01T20:49:17.606Z,36.25
2022-12-01T20:51:44.390Z,33.10
2022-12-01T20:54:29.704Z,33.63
2022-12-01T20:56:57.300Z,33.17
2022-12-01T20:59:24.111Z,34.33
2022-12-01T21:01:50.783Z,33.58
2022-12-01T21:04:17.584Z,32.83
2022-12-01T21:06:44.031Z,30.88
2022-12-01T21:09:11.469Z,31.15
2022-12-01T21:12:04.483Z,32.50
2022-12-01T21:14:42.956Z,30.25
2022-12-01T21:17:49.429Z,33.33
2022-12-01T21:20:28.026Z,32.25
2022-12-01T21:23:01.062Z,32.20
2022-12-01T21:25:27.522Z,31.20
2022-12-01T21:27:57.952Z,29.98
2022-12-01T21:30:29.779Z,31.10
2022-12-01T21:33:15.738Z,28.77
2022-12-01T21:35:42.167Z,29.65
2022-12-01T21:38:14.571Z,30.42
2022-12-01T21:40:44.624Z,31.42
2022-12-01T21:43:22.685Z,29.50
2022-12-01T21:45:51.953Z,28.13
2022-12-01T21:48:22.926Z,28.45
2022-12-01T21:51:00.752Z,30.00
2022-12-01T21:53:32.413Z,28.85
2022-12-01T21:55:58.827Z,28.20
2022-12-01T21:58:30.786Z,28.27
2022-12-01T22:00:59.494Z,27.92
2022-12-01T22:03:39.920Z,27.60
2022-12-01T22:06:35.706Z,27.70
2022-12-01T22:09:12.555Z,26.08
2022-12-01T22:11:38.890Z,26.67
2022-12-01T22:14:08.071Z,26.40
2022-12-01T22:16:38.209Z,26.48
2022-12-01T22:19:16.496Z,28.42
2022-12-01T22:24:32.622Z,25.45
2022-12-01T22:27:20.795Z,26.95
2022-12-01T22:29:48.887Z,27.25
2022-12-01T22:32:15.163Z,28.45
2022-12-01T22:34:58.775Z,28.60
2022-12-01T22:37:34.685Z,27.67
2022-12-01T22:40:01.432Z,27.30
2022-12-01T22:42:35.366Z,27.38
2022-12-01T22:45:22.788Z,28.83
2022-12-01T22:47:49.400Z,25.73
2022-12-01T22:50:29.202Z,25.30
2022-12-01T22:53:18.308Z,23.83
2022-12-01T22:55:44.760Z,25.70
2022-12-01T22:58:23.852Z,24.60
2022-12-01T23:00:50.364Z,25.55
2022-12-01T23:03:16.931Z,23.63
2022-12-01T23:05:45.434Z,24.45
2022-12-01T23:08:19.972Z,24.45
2022-12-01T23:10:46.361Z,24.42
2022-12-01T23:13:19.674Z,24.52
2022-12-01T23:15:48.171Z,25.88
2022-12-01T23:18:28.840Z,24.88
2022-12-01T23:20:57.720Z,25.35
2022-12-01T23:23:33.144Z,24.52
2022-12-01T23:26:02.194Z,24.13
2022-12-01T23:28:29.915Z,25.52
2022-12-01T23:30:59.553Z,22.67
2022-12-01T23:33:28.605Z,23.58
2022-12-01T23:35:59.886Z,24.73
2022-12-01T23:38:31.278Z,25.55
2022-12-01T23:41:01.251Z,24.90
2022-12-01T23:43:32.963Z,28.20
2022-12-01T23:46:05.144Z,24.30
2022-12-01T23:48:36.090Z,24.40
2022-12-01T23:51:04.084Z,24.63
2022-12-01T23:53:32.641Z,23.42
2022-12-01T23:56:10.057Z,24.90
2022-12-01T23:58:36.516Z,23.67
